sensor_id;sensor_type;location;lat;lon;timestamp;temperature;humidity
38995;DHT22;24769;18.712;99.000;2023-04-01T00:01:14;21.90;99.90
38995;DHT22;24769;18.712;99.000;2023-04-01T00:03:42;21.90;99.90
38995;DHT22;24769;18.712;99.000;2023-04-01T00:06:11;22.00;99.90
38995;DHT22;24769;18.712;99.000;2023-04-01T00:08:38;22.00;99.90
38995;DHT22;24769;18.712;99.000;2023-04-01T00:11:05;22.10;99.90
38995;DHT22;24769;18.712;99.000;2023-04-01T00:13:32;22.10;99.90
38995;DHT22;24769;18.712;99.000;2023-04-01T00:15:59;22.30;99.90
38995;DHT22;24769;18.712;99.000;2023-04-01T00:18:27;22.30;99.90
38995;DHT22;24769;18.712;99.000;2023-04-01T00:20:54;22.50;99.90
38995;DHT22;24769;18.712;99.000;2023-04-01T00:23:20;22.60;99.90
38995;DHT22;24769;18.712;99.000;2023-04-01T00:25:48;22.60;99.90
38995;DHT22;24769;18.712;99.000;2023-04-01T00:28:17;22.70;99.90
38995;DHT22;24769;18.712;99.000;2023-04-01T00:30:44;22.70;99.90
38995;DHT22;24769;18.712;99.000;2023-04-01T00:33:11;22.90;99.90
38995;DHT22;24769;18.712;99.000;2023-04-01T00:35:38;23.00;99.90
38995;DHT22;24769;18.712;99.000;2023-04-01T00:38:04;23.00;99.90
38995;DHT22;24769;18.712;99.000;2023-04-01T00:40:36;23.10;99.90
38995;DHT22;24769;18.712;99.000;2023-04-01T00:43:05;23.30;99.90
38995;DHT22;24769;18.712;99.000;2023-04-01T00:45:39;23.50;99.90
38995;DHT22;24769;18.712;99.000;2023-04-01T00:48:18;23.60;99.90
38995;DHT22;24769;18.712;99.000;2023-04-01T00:51:31;23.60;99.90
38995;DHT22;24769;18.712;99.000;2023-04-01T00:53:43;23.70;99.90
38995;DHT22;24769;18.712;99.000;2023-04-01T00:56:13;23.90;99.90
38995;DHT22;24769;18.712;99.000;2023-04-01T00:58:46;24.10;99.90
38995;DHT22;24769;18.712;99.000;2023-04-01T01:01:15;24.10;99.90
38995;DHT22;24769;18.712;99.000;2023-04-01T01:03:42;24.20;99.90
38995;DHT22;24769;18.712;99.000;2023-04-01T01:11:54;24.60;99.90
38995;DHT22;24769;18.712;99.000;2023-04-01T01:17:33;24.80;99.90
38995;DHT22;24769;18.712;99.000;2023-04-01T01:31:26;25.50;86.50
38995;DHT22;24769;18.712;99.000;2023-04-01T01:36:40;25.70;88.70
38995;DHT22;24769;18.712;99.000;2023-04-01T01:39:10;25.80;93.20
38995;DHT22;24769;18.712;99.000;2023-04-01T01:41:39;25.70;93.40
38995;DHT22;24769;18.712;99.000;2023-04-01T01:44:09;25.90;94.20
38995;DHT22;24769;18.712;99.000;2023-04-01T01:46:42;26.10;91.00
38995;DHT22;24769;18.712;99.000;2023-04-01T01:49:11;26.20;88.60
38995;DHT22;24769;18.712;99.000;2023-04-01T01:51:39;26.20;87.20
38995;DHT22;24769;18.712;99.000;2023-04-01T01:54:05;26.20;88.50
38995;DHT22;24769;18.712;99.000;2023-04-01T01:56:34;26.40;88.30
38995;DHT22;24769;18.712;99.000;2023-04-01T01:59:08;26.40;84.30
38995;DHT22;24769;18.712;99.000;2023-04-01T02:01:41;26.30;88.00
38995;DHT22;24769;18.712;99.000;2023-04-01T02:04:13;26.50;83.10
38995;DHT22;24769;18.712;99.000;2023-04-01T02:07:03;26.60;83.40
38995;DHT22;24769;18.712;99.000;2023-04-01T02:09:31;26.50;82.10
38995;DHT22;24769;18.712;99.000;2023-04-01T02:12:04;26.70;82.60
38995;DHT22;24769;18.712;99.000;2023-04-01T02:14:47;26.60;80.00
38995;DHT22;24769;18.712;99.000;2023-04-01T02:17:22;26.70;81.70
38995;DHT22;24769;18.712;99.000;2023-04-01T02:20:09;27.00;81.70
38995;DHT22;24769;18.712;99.000;2023-04-01T02:22:41;27.10;77.00
38995;DHT22;24769;18.712;99.000;2023-04-01T02:25:12;27.30;73.90
38995;DHT22;24769;18.712;99.000;2023-04-01T02:27:40;27.40;68.10
38995;DHT22;24769;18.712;99.000;2023-04-01T02:30:08;27.60;65.90
38995;DHT22;24769;18.712;99.000;2023-04-01T02:32:36;27.70;63.70
38995;DHT22;24769;18.712;99.000;2023-04-01T02:35:11;27.80;62.40
38995;DHT22;24769;18.712;99.000;2023-04-01T02:37:39;28.00;63.60
38995;DHT22;24769;18.712;99.000;2023-04-01T02:40:12;28.00;63.30
38995;DHT22;24769;18.712;99.000;2023-04-01T02:42:39;28.00;64.20
38995;DHT22;24769;18.712;99.000;2023-04-01T02:45:06;28.00;60.30
38995;DHT22;24769;18.712;99.000;2023-04-01T02:47:33;28.20;59.60
38995;DHT22;24769;18.712;99.000;2023-04-01T02:49:59;28.20;53.80
38995;DHT22;24769;18.712;99.000;2023-04-01T02:52:29;28.40;54.20
38995;DHT22;24769;18.712;99.000;2023-04-01T02:54:56;28.60;50.80
38995;DHT22;24769;18.712;99.000;2023-04-01T02:57:24;28.80;51.80
38995;DHT22;24769;18.712;99.000;2023-04-01T02:59:51;28.90;49.10
38995;DHT22;24769;18.712;99.000;2023-04-01T03:02:19;28.80;48.50
38995;DHT22;24769;18.712;99.000;2023-04-01T03:04:48;28.80;48.30
38995;DHT22;24769;18.712;99.000;2023-04-01T03:07:14;28.90;49.50
38995;DHT22;24769;18.712;99.000;2023-04-01T03:09:41;29.20;46.70
38995;DHT22;24769;18.712;99.000;2023-04-01T03:12:07;29.30;45.80
38995;DHT22;24769;18.712;99.000;2023-04-01T03:14:34;29.60;43.70
38995;DHT22;24769;18.712;99.000;2023-04-01T03:17:01;29.60;38.80
38995;DHT22;24769;18.712;99.000;2023-04-01T03:19:27;29.70;39.40
38995;DHT22;24769;18.712;99.000;2023-04-01T03:21:54;29.80;40.40
38995;DHT22;24769;18.712;99.000;2023-04-01T03:24:21;30.00;39.90
38995;DHT22;24769;18.712;99.000;2023-04-01T03:26:47;29.80;39.10
38995;DHT22;24769;18.712;99.000;2023-04-01T03:29:14;29.70;38.00
38995;DHT22;24769;18.712;99.000;2023-04-01T03:31:41;29.70;37.40
38995;DHT22;24769;18.712;99.000;2023-04-01T03:34:08;29.80;37.70
38995;DHT22;24769;18.712;99.000;2023-04-01T03:36:36;30.00;37.40
38995;DHT22;24769;18.712;99.000;2023-04-01T03:39:03;30.10;37.00
38995;DHT22;24769;18.712;99.000;2023-04-01T03:41:29;30.40;35.40
38995;DHT22;24769;18.712;99.000;2023-04-01T03:43:56;30.10;35.30
38995;DHT22;24769;18.712;99.000;2023-04-01T03:46:23;30.40;35.20
38995;DHT22;24769;18.712;99.000;2023-04-01T03:48:50;30.50;33.10
38995;DHT22;24769;18.712;99.000;2023-04-01T03:51:16;30.70;33.20
38995;DHT22;24769;18.712;99.000;2023-04-01T03:53:43;30.90;31.70
38995;DHT22;24769;18.712;99.000;2023-04-01T03:56:11;30.80;32.40
38995;DHT22;24769;18.712;99.000;2023-04-01T03:58:38;30.80;32.20
38995;DHT22;24769;18.712;99.000;2023-04-01T04:01:21;31.10;32.00
38995;DHT22;24769;18.712;99.000;2023-04-01T04:03:49;31.20;31.20
38995;DHT22;24769;18.712;99.000;2023-04-01T04:06:17;31.10;30.40
38995;DHT22;24769;18.712;99.000;2023-04-01T04:08:44;31.10;30.70
38995;DHT22;24769;18.712;99.000;2023-04-01T04:11:11;31.40;29.60
38995;DHT22;24769;18.712;99.000;2023-04-01T04:13:38;31.60;30.20
38995;DHT22;24769;18.712;99.000;2023-04-01T04:16:10;31.70;28.90
38995;DHT22;24769;18.712;99.000;2023-04-01T04:18:37;31.90;27.80
38995;DHT22;24769;18.712;99.000;2023-04-01T04:21:04;31.90;27.10
38995;DHT22;24769;18.712;99.000;2023-04-01T04:23:32;31.80;27.40
38995;DHT22;24769;18.712;99.000;2023-04-01T04:26:02;31.80;27.70
38995;DHT22;24769;18.712;99.000;2023-04-01T04:28:29;32.00;27.50
38995;DHT22;24769;18.712;99.000;2023-04-01T04:30:56;32.20;26.90
38995;DHT22;24769;18.712;99.000;2023-04-01T04:33:23;32.10;25.10
38995;DHT22;24769;18.712;99.000;2023-04-01T04:35:50;32.10;24.20
38995;DHT22;24769;18.712;99.000;2023-04-01T04:38:17;32.20;23.10
38995;DHT22;24769;18.712;99.000;2023-04-01T04:40:44;32.40;23.30
38995;DHT22;24769;18.712;99.000;2023-04-01T04:43:12;32.50;22.90
38995;DHT22;24769;18.712;99.000;2023-04-01T04:45:39;32.30;23.40
38995;DHT22;24769;18.712;99.000;2023-04-01T04:48:14;32.60;23.60
38995;DHT22;24769;18.712;99.000;2023-04-01T04:50:45;32.80;22.40
38995;DHT22;24769;18.712;99.000;2023-04-01T04:53:13;32.80;21.60
38995;DHT22;24769;18.712;99.000;2023-04-01T04:55:49;32.90;22.40
38995;DHT22;24769;18.712;99.000;2023-04-01T04:58:16;33.10;22.40
38995;DHT22;24769;18.712;99.000;2023-04-01T05:00:43;33.20;21.70
38995;DHT22;24769;18.712;99.000;2023-04-01T05:03:10;33.20;20.20
38995;DHT22;24769;18.712;99.000;2023-04-01T05:05:37;33.20;19.80
38995;DHT22;24769;18.712;99.000;2023-04-01T05:08:04;33.00;18.30
38995;DHT22;24769;18.712;99.000;2023-04-01T05:10:31;33.10;19.10
38995;DHT22;24769;18.712;99.000;2023-04-01T05:12:58;33.10;18.60
38995;DHT22;24769;18.712;99.000;2023-04-01T05:15:25;33.00;17.20
38995;DHT22;24769;18.712;99.000;2023-04-01T05:17:51;33.00;18.60
38995;DHT22;24769;18.712;99.000;2023-04-01T05:20:18;33.30;18.40
38995;DHT22;24769;18.712;99.000;2023-04-01T05:22:44;33.50;18.30
38995;DHT22;24769;18.712;99.000;2023-04-01T05:25:11;33.50;15.90
38995;DHT22;24769;18.712;99.000;2023-04-01T05:27:38;33.50;17.30
38995;DHT22;24769;18.712;99.000;2023-04-01T05:30:05;33.70;15.90
38995;DHT22;24769;18.712;99.000;2023-04-01T05:32:32;33.80;15.60
38995;DHT22;24769;18.712;99.000;2023-04-01T05:34:58;33.60;16.20
38995;DHT22;24769;18.712;99.000;2023-04-01T05:37:27;33.80;16.20
38995;DHT22;24769;18.712;99.000;2023-04-01T05:39:54;33.70;15.70
38995;DHT22;24769;18.712;99.000;2023-04-01T05:42:21;33.40;15.10
38995;DHT22;24769;18.712;99.000;2023-04-01T05:44:47;33.50;16.20
38995;DHT22;24769;18.712;99.000;2023-04-01T05:47:14;33.80;16.80
38995;DHT22;24769;18.712;99.000;2023-04-01T05:49:40;34.00;15.70
38995;DHT22;24769;18.712;99.000;2023-04-01T05:52:08;34.00;15.10
38995;DHT22;24769;18.712;99.000;2023-04-01T05:54:34;33.80;14.80
38995;DHT22;24769;18.712;99.000;2023-04-01T05:57:01;34.00;16.20
38995;DHT22;24769;18.712;99.000;2023-04-01T05:59:28;34.20;14.90
38995;DHT22;24769;18.712;99.000;2023-04-01T06:01:54;34.40;14.20
38995;DHT22;24769;18.712;99.000;2023-04-01T06:04:21;34.40;14.30
38995;DHT22;24769;18.712;99.000;2023-04-01T06:06:47;34.20;13.20
38995;DHT22;24769;18.712;99.000;2023-04-01T06:09:15;34.10;14.10
38995;DHT22;24769;18.712;99.000;2023-04-01T06:14:43;34.10;14.30
38995;DHT22;24769;18.712;99.000;2023-04-01T06:17:29;34.20;14.20
38995;DHT22;24769;18.712;99.000;2023-04-01T06:22:37;34.30;14.50
38995;DHT22;24769;18.712;99.000;2023-04-01T06:31:33;34.50;12.90
38995;DHT22;24769;18.712;99.000;2023-04-01T06:34:17;34.30;13.90
38995;DHT22;24769;18.712;99.000;2023-04-01T06:51:06;34.80;12.00
38995;DHT22;24769;18.712;99.000;2023-04-01T06:56:32;34.80;12.00
38995;DHT22;24769;18.712;99.000;2023-04-01T06:59:17;34.70;11.60
38995;DHT22;24769;18.712;99.000;2023-04-01T07:01:53;34.80;12.40
38995;DHT22;24769;18.712;99.000;2023-04-01T07:04:29;34.70;11.30
38995;DHT22;24769;18.712;99.000;2023-04-01T07:07:03;34.50;11.60
38995;DHT22;24769;18.712;99.000;2023-04-01T07:09:35;34.60;12.30
38995;DHT22;24769;18.712;99.000;2023-04-01T07:12:27;34.60;11.20
38995;DHT22;24769;18.712;99.000;2023-04-01T07:15:06;34.80;11.00
38995;DHT22;24769;18.712;99.000;2023-04-01T07:17:39;34.70;11.60
38995;DHT22;24769;18.712;99.000;2023-04-01T07:20:32;34.90;11.90
38995;DHT22;24769;18.712;99.000;2023-04-01T07:23:03;34.90;12.20
38995;DHT22;24769;18.712;99.000;2023-04-01T07:25:39;34.80;11.70
38995;DHT22;24769;18.712;99.000;2023-04-01T07:28:14;35.00;11.30
38995;DHT22;24769;18.712;99.000;2023-04-01T07:33:41;34.70;10.30
38995;DHT22;24769;18.712;99.000;2023-04-01T07:36:33;34.70;10.60
38995;DHT22;24769;18.712;99.000;2023-04-01T07:39:27;34.80;10.10
38995;DHT22;24769;18.712;99.000;2023-04-01T07:47:55;34.70;9.70
38995;DHT22;24769;18.712;99.000;2023-04-01T07:50:32;34.70;10.10
38995;DHT22;24769;18.712;99.000;2023-04-01T07:58:29;34.70;9.10
38995;DHT22;24769;18.712;99.000;2023-04-01T08:06:24;34.80;9.20
38995;DHT22;24769;18.712;99.000;2023-04-01T08:09:13;34.80;8.50
38995;DHT22;24769;18.712;99.000;2023-04-01T08:11:59;35.00;7.20
38995;DHT22;24769;18.712;99.000;2023-04-01T08:22:38;35.20;5.20
38995;DHT22;24769;18.712;99.000;2023-04-01T08:25:10;35.20;6.50
38995;DHT22;24769;18.712;99.000;2023-04-01T08:27:45;35.10;5.30
38995;DHT22;24769;18.712;99.000;2023-04-01T08:30:19;35.10;7.40
38995;DHT22;24769;18.712;99.000;2023-04-01T08:33:00;35.00;5.80
38995;DHT22;24769;18.712;99.000;2023-04-01T08:46:42;35.20;5.60
38995;DHT22;24769;18.712;99.000;2023-04-01T09:00:32;35.20;6.00
38995;DHT22;24769;18.712;99.000;2023-04-01T09:05:50;35.40;5.40
38995;DHT22;24769;18.712;99.000;2023-04-01T09:16:27;35.10;6.10
38995;DHT22;24769;18.712;99.000;2023-04-01T09:19:05;35.10;6.40
38995;DHT22;24769;18.712;99.000;2023-04-01T09:21:43;35.20;6.40
38995;DHT22;24769;18.712;99.000;2023-04-01T09:24:33;34.90;6.50
38995;DHT22;24769;18.712;99.000;2023-04-01T09:27:28;34.80;6.10
38995;DHT22;24769;18.712;99.000;2023-04-01T09:30:34;34.60;7.20
38995;DHT22;24769;18.712;99.000;2023-04-01T09:40:55;34.60;7.80
38995;DHT22;24769;18.712;99.000;2023-04-01T09:43:30;34.50;7.20
38995;DHT22;24769;18.712;99.000;2023-04-01T10:58:28;31.20;24.10
38995;DHT22;24769;18.712;99.000;2023-04-01T11:09:50;30.70;23.70
38995;DHT22;24769;18.712;99.000;2023-04-01T11:21:36;30.10;31.20
38995;DHT22;24769;18.712;99.000;2023-04-01T11:24:15;29.90;33.90
38995;DHT22;24769;18.712;99.000;2023-04-01T11:32:54;29.60;38.50
38995;DHT22;24769;18.712;99.000;2023-04-01T11:47:22;29.10;36.40
38995;DHT22;24769;18.712;99.000;2023-04-01T11:58:36;28.70;33.70
38995;DHT22;24769;18.712;99.000;2023-04-01T12:01:29;28.60;34.60
38995;DHT22;24769;18.712;99.000;2023-04-01T12:05:00;28.40;34.60
38995;DHT22;24769;18.712;99.000;2023-04-01T12:13:10;28.20;39.50
38995;DHT22;24769;18.712;99.000;2023-04-01T12:21:35;28.10;42.60
38995;DHT22;24769;18.712;99.000;2023-04-01T12:26:55;28.00;44.80
38995;DHT22;24769;18.712;99.000;2023-04-01T13:19:08;27.20;52.50
38995;DHT22;24769;18.712;99.000;2023-04-01T13:25:04;27.10;54.50
38995;DHT22;24769;18.712;99.000;2023-04-01T13:27:40;27.10;54.50
38995;DHT22;24769;18.712;99.000;2023-04-01T13:33:14;26.90;57.50
38995;DHT22;24769;18.712;99.000;2023-04-01T13:43:59;26.70;65.80
38995;DHT22;24769;18.712;99.000;2023-04-01T13:46:45;26.90;64.70
38995;DHT22;24769;18.712;99.000;2023-04-01T13:49:29;26.80;62.20
38995;DHT22;24769;18.712;99.000;2023-04-01T13:54:59;26.90;63.20
38995;DHT22;24769;18.712;99.000;2023-04-01T14:06:09;27.10;61.90
38995;DHT22;24769;18.712;99.000;2023-04-01T14:11:59;27.10;58.80
38995;DHT22;24769;18.712;99.000;2023-04-01T14:25:16;26.60;63.50
38995;DHT22;24769;18.712;99.000;2023-04-01T14:47:47;26.50;63.10
38995;DHT22;24769;18.712;99.000;2023-04-01T14:50:24;26.60;61.10
38995;DHT22;24769;18.712;99.000;2023-04-01T14:58:16;26.80;56.20
38995;DHT22;24769;18.712;99.000;2023-04-01T15:00:58;26.80;55.60
38995;DHT22;24769;18.712;99.000;2023-04-01T15:09:21;27.10;50.90
38995;DHT22;24769;18.712;99.000;2023-04-01T15:12:26;27.20;50.10
38995;DHT22;24769;18.712;99.000;2023-04-01T15:26:14;27.10;47.90
38995;DHT22;24769;18.712;99.000;2023-04-01T15:31:54;27.10;49.10
38995;DHT22;24769;18.712;99.000;2023-04-01T15:37:39;26.90;51.30
38995;DHT22;24769;18.712;99.000;2023-04-01T15:42:55;26.40;55.30
38995;DHT22;24769;18.712;99.000;2023-04-01T15:45:36;26.40;55.20
38995;DHT22;24769;18.712;99.000;2023-04-01T15:53:52;26.10;59.10
38995;DHT22;24769;18.712;99.000;2023-04-01T15:56:26;26.00;60.10
38995;DHT22;24769;18.712;99.000;2023-04-01T16:15:29;25.70;63.50
38995;DHT22;24769;18.712;99.000;2023-04-01T16:18:31;25.60;65.60
38995;DHT22;24769;18.712;99.000;2023-04-01T16:21:02;25.70;65.20
38995;DHT22;24769;18.712;99.000;2023-04-01T16:31:34;25.60;66.10
38995;DHT22;24769;18.712;99.000;2023-04-01T16:34:36;25.50;70.30
38995;DHT22;24769;18.712;99.000;2023-04-01T16:37:11;25.40;70.30
38995;DHT22;24769;18.712;99.000;2023-04-01T16:42:56;25.80;67.80
38995;DHT22;24769;18.712;99.000;2023-04-01T16:48:13;25.70;70.40
38995;DHT22;24769;18.712;99.000;2023-04-01T16:51:04;25.60;71.40
38995;DHT22;24769;18.712;99.000;2023-04-01T16:53:45;25.60;72.00
38995;DHT22;24769;18.712;99.000;2023-04-01T17:01:23;25.60;71.70
38995;DHT22;24769;18.712;99.000;2023-04-01T17:03:57;25.50;71.30
38995;DHT22;24769;18.712;99.000;2023-04-01T17:06:53;25.50;72.10
38995;DHT22;24769;18.712;99.000;2023-04-01T17:12:32;25.50;75.10
38995;DHT22;24769;18.712;99.000;2023-04-01T17:30:13;25.20;80.50
38995;DHT22;24769;18.712;99.000;2023-04-01T17:36:09;24.90;89.00
38995;DHT22;24769;18.712;99.000;2023-04-01T17:41:31;24.80;91.60
38995;DHT22;24769;18.712;99.000;2023-04-01T17:50:33;24.70;96.20
38995;DHT22;24769;18.712;99.000;2023-04-01T17:53:36;24.60;99.10
38995;DHT22;24769;18.712;99.000;2023-04-01T17:56:34;24.60;99.60
38995;DHT22;24769;18.712;99.000;2023-04-01T18:01:52;24.60;99.90
38995;DHT22;24769;18.712;99.000;2023-04-01T18:21:48;24.50;99.90
38995;DHT22;24769;18.712;99.000;2023-04-01T18:27:23;24.30;99.90
38995;DHT22;24769;18.712;99.000;2023-04-01T18:35:52;24.30;99.90
38995;DHT22;24769;18.712;99.000;2023-04-01T18:38:29;24.30;99.90
38995;DHT22;24769;18.712;99.000;2023-04-01T18:43:48;24.30;99.90
38995;DHT22;24769;18.712;99.000;2023-04-01T18:49:10;24.20;99.90
38995;DHT22;24769;18.712;99.000;2023-04-01T18:51:49;24.30;99.90
38995;DHT22;24769;18.712;99.000;2023-04-01T18:54:30;24.30;99.90
38995;DHT22;24769;18.712;99.000;2023-04-01T18:57:16;24.30;99.90
38995;DHT22;24769;18.712;99.000;2023-04-01T19:00:04;24.30;99.90
38995;DHT22;24769;18.712;99.000;2023-04-01T19:02:36;24.40;99.90
38995;DHT22;24769;18.712;99.000;2023-04-01T19:07:48;24.20;99.90
38995;DHT22;24769;18.712;99.000;2023-04-01T19:21:14;24.00;99.90
38995;DHT22;24769;18.712;99.000;2023-04-01T19:23:53;24.00;99.90
38995;DHT22;24769;18.712;99.000;2023-04-01T19:34:46;24.10;99.90
38995;DHT22;24769;18.712;99.000;2023-04-01T19:43:49;24.30;99.90
38995;DHT22;24769;18.712;99.000;2023-04-01T19:46:28;24.40;99.90
38995;DHT22;24769;18.712;99.000;2023-04-01T19:51:57;24.20;99.90
38995;DHT22;24769;18.712;99.000;2023-04-01T19:54:47;24.10;99.90
38995;DHT22;24769;18.712;99.000;2023-04-01T20:00:02;23.90;99.90
38995;DHT22;24769;18.712;99.000;2023-04-01T20:05:25;23.80;99.90
38995;DHT22;24769;18.712;99.000;2023-04-01T20:08:25;23.90;99.90
38995;DHT22;24769;18.712;99.000;2023-04-01T20:10:54;24.00;99.90
38995;DHT22;24769;18.712;99.000;2023-04-01T20:16:21;23.70;99.90
38995;DHT22;24769;18.712;99.000;2023-04-01T20:26:50;23.30;99.90
38995;DHT22;24769;18.712;99.000;2023-04-01T20:35:20;23.40;99.90
38995;DHT22;24769;18.712;99.000;2023-04-01T20:52:29;23.30;99.90
38995;DHT22;24769;18.712;99.000;2023-04-01T20:55:20;23.40;99.90
38995;DHT22;24769;18.712;99.000;2023-04-01T21:00:59;23.30;99.90
38995;DHT22;24769;18.712;99.000;2023-04-01T21:03:34;23.40;99.90
38995;DHT22;24769;18.712;99.000;2023-04-01T21:09:09;23.20;99.90
38995;DHT22;24769;18.712;99.000;2023-04-01T21:23:19;23.00;99.90
38995;DHT22;24769;18.712;99.000;2023-04-01T21:42:59;23.00;99.90
38995;DHT22;24769;18.712;99.000;2023-04-01T21:54:25;23.00;99.90
38995;DHT22;24769;18.712;99.000;2023-04-01T22:05:41;22.80;99.90
38995;DHT22;24769;18.712;99.000;2023-04-01T22:08:33;22.70;99.90
38995;DHT22;24769;18.712;99.000;2023-04-01T22:11:14;22.60;99.90
38995;DHT22;24769;18.712;99.000;2023-04-01T22:14:14;22.70;99.90
38995;DHT22;24769;18.712;99.000;2023-04-01T22:17:03;22.70;99.90
38995;DHT22;24769;18.712;99.000;2023-04-01T22:25:16;22.60;99.90
38995;DHT22;24769;18.712;99.000;2023-04-01T22:28:09;22.60;99.90
38995;DHT22;24769;18.712;99.000;2023-04-01T22:30:50;22.50;99.90
38995;DHT22;24769;18.712;99.000;2023-04-01T22:49:59;22.60;99.90
38995;DHT22;24769;18.712;99.000;2023-04-01T22:52:36;22.60;99.90
38995;DHT22;24769;18.712;99.000;2023-04-01T22:55:10;22.50;99.90
38995;DHT22;24769;18.712;99.000;2023-04-01T22:57:58;22.60;99.90
38995;DHT22;24769;18.712;99.000;2023-04-01T23:00:26;22.60;99.90
38995;DHT22;24769;18.712;99.000;2023-04-01T23:06:02;22.60;99.90
38995;DHT22;24769;18.712;99.000;2023-04-01T23:17:05;22.30;99.90
38995;DHT22;24769;18.712;99.000;2023-04-01T23:31:39;22.20;99.90
38995;DHT22;24769;18.712;99.000;2023-04-01T23:36:51;22.30;99.90
38995;DHT22;24769;18.712;99.000;2023-04-01T23:44:53;22.40;99.90
38995;DHT22;24769;18.712;99.000;2023-04-01T23:47:27;22.40;99.90
38995;DHT22;24769;18.712;99.000;2023-04-01T23:49:59;22.60;99.90
38995;DHT22;24769;18.712;99.000;2023-04-01T23:52:35;22.60;99.90
38995;DHT22;24769;18.712;99.000;2023-04-01T23:55:24;22.60;99.90
38995;DHT22;24769;18.712;99.000;2023-04-01T23:58:13;22.60;99.90
